sensor_id;sensor_type;location;lat;lon;timestamp;P1;durP1;ratioP1;P2;durP2;ratioP2
21927;SDS011;11128;51.096;17.190;2022-08-19T00:03:55;11.30;;;7.63;;
21927;SDS011;11128;51.096;17.190;2022-08-19T00:09:00;11.00;;;8.63;;
21927;SDS011;11128;51.096;17.190;2022-08-19T00:14:03;12.60;;;8.75;;
21927;SDS011;11128;51.096;17.190;2022-08-19T00:19:07;11.00;;;8.23;;
21927;SDS011;11128;51.096;17.190;2022-08-19T00:24:11;10.18;;;7.95;;
21927;SDS011;11128;51.096;17.190;2022-08-19T00:29:15;12.98;;;8.35;;
21927;SDS011;11128;51.096;17.190;2022-08-19T00:34:18;12.73;;;8.98;;
21927;SDS011;11128;51.096;17.190;2022-08-19T00:39:19;12.43;;;8.02;;
21927;SDS011;11128;51.096;17.190;2022-08-19T00:44:22;10.15;;;8.32;;
21927;SDS011;11128;51.096;17.190;2022-08-19T00:49:32;11.25;;;7.82;;
21927;SDS011;11128;51.096;17.190;2022-08-19T00:54:40;13.43;;;9.05;;
21927;SDS011;11128;51.096;17.190;2022-08-19T00:59:44;11.23;;;7.65;;
21927;SDS011;11128;51.096;17.190;2022-08-19T01:04:48;10.15;;;8.20;;
21927;SDS011;11128;51.096;17.190;2022-08-19T01:09:50;11.65;;;7.82;;
21927;SDS011;11128;51.096;17.190;2022-08-19T01:14:52;10.52;;;8.05;;
21927;SDS011;11128;51.096;17.190;2022-08-19T01:19:54;12.05;;;7.75;;
21927;SDS011;11128;51.096;17.190;2022-08-19T01:24:56;11.98;;;7.85;;
21927;SDS011;11128;51.096;17.190;2022-08-19T01:29:58;10.95;;;7.90;;
21927;SDS011;11128;51.096;17.190;2022-08-19T01:35:02;9.45;;;8.35;;
21927;SDS011;11128;51.096;17.190;2022-08-19T01:40:04;11.00;;;8.35;;
21927;SDS011;11128;51.096;17.190;2022-08-19T01:45:07;11.95;;;8.10;;
21927;SDS011;11128;51.096;17.190;2022-08-19T01:50:09;12.68;;;8.52;;
21927;SDS011;11128;51.096;17.190;2022-08-19T01:55:13;9.98;;;8.13;;
21927;SDS011;11128;51.096;17.190;2022-08-19T02:00:18;13.50;;;8.38;;
21927;SDS011;11128;51.096;17.190;2022-08-19T02:05:22;11.95;;;7.93;;
21927;SDS011;11128;51.096;17.190;2022-08-19T02:10:25;13.77;;;9.05;;
21927;SDS011;11128;51.096;17.190;2022-08-19T02:15:26;14.73;;;8.57;;
21927;SDS011;11128;51.096;17.190;2022-08-19T02:20:28;10.10;;;8.25;;
21927;SDS011;11128;51.096;17.190;2022-08-19T02:25:29;10.85;;;8.18;;
21927;SDS011;11128;51.096;17.190;2022-08-19T02:30:31;12.73;;;8.50;;
21927;SDS011;11128;51.096;17.190;2022-08-19T02:35:33;14.75;;;9.02;;
21927;SDS011;11128;51.096;17.190;2022-08-19T02:40:35;14.35;;;8.45;;
21927;SDS011;11128;51.096;17.190;2022-08-19T02:45:38;14.63;;;9.02;;
21927;SDS011;11128;51.096;17.190;2022-08-19T02:50:43;15.18;;;9.50;;
21927;SDS011;11128;51.096;17.190;2022-08-19T02:55:45;14.27;;;9.02;;
21927;SDS011;11128;51.096;17.190;2022-08-19T03:00:49;17.58;;;9.25;;
21927;SDS011;11128;51.096;17.190;2022-08-19T03:06:02;17.42;;;9.50;;
21927;SDS011;11128;51.096;17.190;2022-08-19T03:11:16;16.42;;;10.10;;
21927;SDS011;11128;51.096;17.190;2022-08-19T03:16:21;13.63;;;8.93;;
21927;SDS011;11128;51.096;17.190;2022-08-19T03:21:24;13.52;;;9.85;;
21927;SDS011;11128;51.096;17.190;2022-08-19T03:26:28;13.10;;;9.90;;
21927;SDS011;11128;51.096;17.190;2022-08-19T03:31:30;13.43;;;9.65;;
21927;SDS011;11128;51.096;17.190;2022-08-19T03:36:32;14.38;;;9.68;;
21927;SDS011;11128;51.096;17.190;2022-08-19T03:41:38;13.05;;;9.55;;
21927;SDS011;11128;51.096;17.190;2022-08-19T03:46:41;16.25;;;10.15;;
21927;SDS011;11128;51.096;17.190;2022-08-19T03:51:44;14.70;;;10.05;;
21927;SDS011;11128;51.096;17.190;2022-08-19T03:56:48;14.00;;;10.13;;
21927;SDS011;11128;51.096;17.190;2022-08-19T04:01:52;14.35;;;10.50;;
21927;SDS011;11128;51.096;17.190;2022-08-19T04:06:55;13.73;;;10.93;;
21927;SDS011;11128;51.096;17.190;2022-08-19T04:11:57;17.33;;;10.25;;
21927;SDS011;11128;51.096;17.190;2022-08-19T04:16:59;17.17;;;10.68;;
21927;SDS011;11128;51.096;17.190;2022-08-19T04:22:04;19.58;;;11.32;;
21927;SDS011;11128;51.096;17.190;2022-08-19T04:27:05;19.02;;;11.65;;
21927;SDS011;11128;51.096;17.190;2022-08-19T04:32:07;17.92;;;12.07;;
21927;SDS011;11128;51.096;17.190;2022-08-19T04:37:09;17.63;;;12.13;;
21927;SDS011;11128;51.096;17.190;2022-08-19T04:42:12;16.45;;;12.20;;
21927;SDS011;11128;51.096;17.190;2022-08-19T04:47:33;17.30;;;12.05;;
21927;SDS011;11128;51.096;17.190;2022-08-19T04:52:35;18.15;;;12.73;;
21927;SDS011;11128;51.096;17.190;2022-08-19T04:57:36;17.63;;;11.90;;
21927;SDS011;11128;51.096;17.190;2022-08-19T05:02:40;21.00;;;12.35;;
21927;SDS011;11128;51.096;17.190;2022-08-19T05:07:42;19.27;;;12.48;;
21927;SDS011;11128;51.096;17.190;2022-08-19T05:12:43;19.30;;;13.15;;
21927;SDS011;11128;51.096;17.190;2022-08-19T05:17:45;20.27;;;12.77;;
21927;SDS011;11128;51.096;17.190;2022-08-19T05:23:06;19.67;;;12.57;;
21927;SDS011;11128;51.096;17.190;2022-08-19T05:28:07;20.17;;;13.60;;
21927;SDS011;11128;51.096;17.190;2022-08-19T05:33:09;19.08;;;13.10;;
21927;SDS011;11128;51.096;17.190;2022-08-19T05:38:11;21.33;;;13.77;;
21927;SDS011;11128;51.096;17.190;2022-08-19T05:43:13;20.60;;;13.40;;
21927;SDS011;11128;51.096;17.190;2022-08-19T05:48:18;20.55;;;12.57;;
21927;SDS011;11128;51.096;17.190;2022-08-19T05:53:21;19.02;;;13.02;;
21927;SDS011;11128;51.096;17.190;2022-08-19T05:58:23;18.40;;;13.63;;
21927;SDS011;11128;51.096;17.190;2022-08-19T06:03:25;17.38;;;13.05;;
21927;SDS011;11128;51.096;17.190;2022-08-19T06:08:27;20.55;;;12.82;;
21927;SDS011;11128;51.096;17.190;2022-08-19T06:13:29;19.50;;;12.73;;
21927;SDS011;11128;51.096;17.190;2022-08-19T06:18:31;23.05;;;13.05;;
21927;SDS011;11128;51.096;17.190;2022-08-19T06:23:34;18.13;;;12.68;;
21927;SDS011;11128;51.096;17.190;2022-08-19T06:28:36;17.17;;;11.77;;
21927;SDS011;11128;51.096;17.190;2022-08-19T06:33:37;17.95;;;13.25;;
21927;SDS011;11128;51.096;17.190;2022-08-19T06:38:40;19.90;;;12.55;;
21927;SDS011;11128;51.096;17.190;2022-08-19T06:43:41;17.90;;;12.20;;
21927;SDS011;11128;51.096;17.190;2022-08-19T06:48:43;20.13;;;12.05;;
21927;SDS011;11128;51.096;17.190;2022-08-19T06:53:49;18.88;;;11.98;;
21927;SDS011;11128;51.096;17.190;2022-08-19T06:58:52;17.50;;;11.65;;
21927;SDS011;11128;51.096;17.190;2022-08-19T07:03:53;16.50;;;11.82;;
21927;SDS011;11128;51.096;17.190;2022-08-19T07:08:55;17.02;;;11.13;;
21927;SDS011;11128;51.096;17.190;2022-08-19T07:13:59;18.42;;;10.70;;
21927;SDS011;11128;51.096;17.190;2022-08-19T07:19:02;16.30;;;11.20;;
21927;SDS011;11128;51.096;17.190;2022-08-19T07:24:04;14.07;;;10.38;;
21927;SDS011;11128;51.096;17.190;2022-08-19T07:29:08;15.68;;;10.77;;
21927;SDS011;11128;51.096;17.190;2022-08-19T07:34:10;17.23;;;10.38;;
21927;SDS011;11128;51.096;17.190;2022-08-19T07:39:17;14.52;;;10.40;;
21927;SDS011;11128;51.096;17.190;2022-08-19T07:44:25;14.07;;;9.60;;
21927;SDS011;11128;51.096;17.190;2022-08-19T07:49:27;16.25;;;9.20;;
21927;SDS011;11128;51.096;17.190;2022-08-19T07:54:30;13.25;;;9.20;;
21927;SDS011;11128;51.096;17.190;2022-08-19T07:59:36;11.32;;;8.50;;
21927;SDS011;11128;51.096;17.190;2022-08-19T08:04:41;16.15;;;8.15;;
21927;SDS011;11128;51.096;17.190;2022-08-19T08:10:04;12.57;;;8.43;;
21927;SDS011;11128;51.096;17.190;2022-08-19T08:15:09;16.15;;;7.38;;
21927;SDS011;11128;51.096;17.190;2022-08-19T08:20:17;12.15;;;8.80;;
21927;SDS011;11128;51.096;17.190;2022-08-19T08:25:21;10.73;;;7.75;;
21927;SDS011;11128;51.096;17.190;2022-08-19T08:30:26;9.68;;;7.53;;
21927;SDS011;11128;51.096;17.190;2022-08-19T08:35:29;12.95;;;8.00;;
21927;SDS011;11128;51.096;17.190;2022-08-19T08:46:05;12.70;;;7.72;;
21927;SDS011;11128;51.096;17.190;2022-08-19T08:51:09;9.48;;;7.45;;
21927;SDS011;11128;51.096;17.190;2022-08-19T08:56:16;57.10;;;27.95;;
21927;SDS011;11128;51.096;17.190;2022-08-19T09:01:19;18.60;;;11.20;;
21927;SDS011;11128;51.096;17.190;2022-08-19T09:11:39;11.00;;;7.57;;
21927;SDS011;11128;51.096;17.190;2022-08-19T09:16:57;14.63;;;7.93;;
21927;SDS011;11128;51.096;17.190;2022-08-19T09:21:59;13.85;;;8.45;;
21927;SDS011;11128;51.096;17.190;2022-08-19T09:27:01;12.07;;;7.88;;
21927;SDS011;11128;51.096;17.190;2022-08-19T09:32:03;9.00;;;7.25;;
21927;SDS011;11128;51.096;17.190;2022-08-19T09:37:07;9.88;;;6.80;;
21927;SDS011;11128;51.096;17.190;2022-08-19T09:42:11;11.38;;;6.75;;
21927;SDS011;11128;51.096;17.190;2022-08-19T09:47:14;12.43;;;6.97;;
21927;SDS011;11128;51.096;17.190;2022-08-19T09:52:16;12.30;;;6.03;;
21927;SDS011;11128;51.096;17.190;2022-08-19T09:57:20;12.65;;;5.18;;
21927;SDS011;11128;51.096;17.190;2022-08-19T10:02:22;9.23;;;5.50;;
21927;SDS011;11128;51.096;17.190;2022-08-19T10:07:23;8.23;;;5.00;;
21927;SDS011;11128;51.096;17.190;2022-08-19T10:12:25;13.27;;;6.57;;
21927;SDS011;11128;51.096;17.190;2022-08-19T10:17:27;6.88;;;4.88;;
21927;SDS011;11128;51.096;17.190;2022-08-19T10:22:29;9.20;;;5.30;;
21927;SDS011;11128;51.096;17.190;2022-08-19T10:27:31;8.02;;;4.82;;
21927;SDS011;11128;51.096;17.190;2022-08-19T10:32:32;8.35;;;5.20;;
21927;SDS011;11128;51.096;17.190;2022-08-19T10:37:36;5.60;;;4.70;;
21927;SDS011;11128;51.096;17.190;2022-08-19T10:42:38;7.88;;;4.50;;
21927;SDS011;11128;51.096;17.190;2022-08-19T10:47:40;5.28;;;4.70;;
21927;SDS011;11128;51.096;17.190;2022-08-19T10:52:43;7.68;;;4.80;;
21927;SDS011;11128;51.096;17.190;2022-08-19T10:57:48;7.57;;;4.80;;
21927;SDS011;11128;51.096;17.190;2022-08-19T11:02:50;8.32;;;4.28;;
21927;SDS011;11128;51.096;17.190;2022-08-19T11:07:53;8.45;;;4.50;;
21927;SDS011;11128;51.096;17.190;2022-08-19T11:12:55;5.82;;;4.40;;
21927;SDS011;11128;51.096;17.190;2022-08-19T11:17:57;5.70;;;4.35;;
21927;SDS011;11128;51.096;17.190;2022-08-19T11:23:01;6.63;;;4.35;;
21927;SDS011;11128;51.096;17.190;2022-08-19T11:28:03;7.32;;;3.97;;
21927;SDS011;11128;51.096;17.190;2022-08-19T11:33:05;7.10;;;4.57;;
21927;SDS011;11128;51.096;17.190;2022-08-19T11:38:07;7.70;;;4.40;;
21927;SDS011;11128;51.096;17.190;2022-08-19T11:43:09;6.95;;;4.32;;
21927;SDS011;11128;51.096;17.190;2022-08-19T11:48:11;9.98;;;4.40;;
21927;SDS011;11128;51.096;17.190;2022-08-19T11:53:12;4.93;;;2.38;;
21927;SDS011;11128;51.096;17.190;2022-08-19T11:58:15;4.65;;;2.65;;
21927;SDS011;11128;51.096;17.190;2022-08-19T12:03:17;6.40;;;3.13;;
21927;SDS011;11128;51.096;17.190;2022-08-19T12:08:20;5.28;;;2.60;;
21927;SDS011;11128;51.096;17.190;2022-08-19T12:13:21;4.97;;;2.25;;
21927;SDS011;11128;51.096;17.190;2022-08-19T12:18:23;7.00;;;2.25;;
21927;SDS011;11128;51.096;17.190;2022-08-19T12:23:26;6.70;;;2.75;;
21927;SDS011;11128;51.096;17.190;2022-08-19T12:28:28;6.65;;;2.67;;
21927;SDS011;11128;51.096;17.190;2022-08-19T12:33:29;5.97;;;3.35;;
21927;SDS011;11128;51.096;17.190;2022-08-19T12:38:33;5.75;;;2.70;;
21927;SDS011;11128;51.096;17.190;2022-08-19T12:43:35;5.60;;;2.42;;
21927;SDS011;11128;51.096;17.190;2022-08-19T12:48:38;8.98;;;2.90;;
21927;SDS011;11128;51.096;17.190;2022-08-19T12:53:43;6.95;;;2.80;;
21927;SDS011;11128;51.096;17.190;2022-08-19T12:58:44;7.18;;;2.78;;
21927;SDS011;11128;51.096;17.190;2022-08-19T13:03:46;5.43;;;2.83;;
21927;SDS011;11128;51.096;17.190;2022-08-19T13:08:48;5.38;;;2.42;;
21927;SDS011;11128;51.096;17.190;2022-08-19T13:13:51;6.15;;;2.58;;
21927;SDS011;11128;51.096;17.190;2022-08-19T13:18:54;7.65;;;2.55;;
21927;SDS011;11128;51.096;17.190;2022-08-19T13:23:57;6.63;;;2.20;;
21927;SDS011;11128;51.096;17.190;2022-08-19T13:28:59;5.50;;;2.10;;
21927;SDS011;11128;51.096;17.190;2022-08-19T13:34:27;8.43;;;2.70;;
21927;SDS011;11128;51.096;17.190;2022-08-19T13:39:31;7.95;;;2.28;;
21927;SDS011;11128;51.096;17.190;2022-08-19T13:44:33;12.00;;;2.40;;
21927;SDS011;11128;51.096;17.190;2022-08-19T13:49:35;5.93;;;2.40;;
21927;SDS011;11128;51.096;17.190;2022-08-19T13:54:37;7.05;;;2.33;;
21927;SDS011;11128;51.096;17.190;2022-08-19T13:59:39;6.57;;;3.00;;
21927;SDS011;11128;51.096;17.190;2022-08-19T14:04:40;5.38;;;2.80;;
21927;SDS011;11128;51.096;17.190;2022-08-19T14:09:42;4.45;;;2.33;;
21927;SDS011;11128;51.096;17.190;2022-08-19T14:14:43;8.38;;;2.53;;
21927;SDS011;11128;51.096;17.190;2022-08-19T14:19:45;4.28;;;2.97;;
21927;SDS011;11128;51.096;17.190;2022-08-19T14:24:47;5.20;;;2.65;;
21927;SDS011;11128;51.096;17.190;2022-08-19T14:29:48;5.95;;;2.80;;
21927;SDS011;11128;51.096;17.190;2022-08-19T14:34:50;4.32;;;2.90;;
21927;SDS011;11128;51.096;17.190;2022-08-19T14:39:52;7.90;;;2.88;;
21927;SDS011;11128;51.096;17.190;2022-08-19T14:44:56;7.57;;;3.05;;
21927;SDS011;11128;51.096;17.190;2022-08-19T14:49:59;7.70;;;2.92;;
21927;SDS011;11128;51.096;17.190;2022-08-19T14:55:02;6.43;;;3.13;;
21927;SDS011;11128;51.096;17.190;2022-08-19T15:00:04;10.10;;;3.58;;
21927;SDS011;11128;51.096;17.190;2022-08-19T15:05:07;11.15;;;3.15;;
21927;SDS011;11128;51.096;17.190;2022-08-19T15:10:10;6.85;;;2.90;;
21927;SDS011;11128;51.096;17.190;2022-08-19T15:15:13;10.70;;;5.07;;
21927;SDS011;11128;51.096;17.190;2022-08-19T15:20:18;11.93;;;4.70;;
21927;SDS011;11128;51.096;17.190;2022-08-19T15:25:22;6.18;;;3.10;;
21927;SDS011;11128;51.096;17.190;2022-08-19T15:30:24;11.55;;;3.72;;
21927;SDS011;11128;51.096;17.190;2022-08-19T15:35:29;10.75;;;3.70;;
21927;SDS011;11128;51.096;17.190;2022-08-19T15:40:30;4.30;;;3.38;;
21927;SDS011;11128;51.096;17.190;2022-08-19T15:45:32;7.20;;;4.30;;
21927;SDS011;11128;51.096;17.190;2022-08-19T15:50:34;10.98;;;5.88;;
21927;SDS011;11128;51.096;17.190;2022-08-19T15:55:36;8.80;;;7.03;;
21927;SDS011;11128;51.096;17.190;2022-08-19T16:00:43;13.43;;;8.40;;
21927;SDS011;11128;51.096;17.190;2022-08-19T16:06:03;11.90;;;8.95;;
21927;SDS011;11128;51.096;17.190;2022-08-19T16:11:24;12.32;;;8.60;;
21927;SDS011;11128;51.096;17.190;2022-08-19T16:16:31;12.45;;;9.60;;
21927;SDS011;11128;51.096;17.190;2022-08-19T16:21:34;12.13;;;9.95;;
21927;SDS011;11128;51.096;17.190;2022-08-19T16:26:36;18.13;;;11.15;;
21927;SDS011;11128;51.096;17.190;2022-08-19T16:31:39;18.30;;;12.18;;
21927;SDS011;11128;51.096;17.190;2022-08-19T16:36:43;18.27;;;12.95;;
21927;SDS011;11128;51.096;17.190;2022-08-19T16:41:44;19.15;;;12.95;;
21927;SDS011;11128;51.096;17.190;2022-08-19T16:46:46;18.45;;;13.80;;
21927;SDS011;11128;51.096;17.190;2022-08-19T16:51:48;17.15;;;13.20;;
21927;SDS011;11128;51.096;17.190;2022-08-19T16:56:50;22.52;;;13.65;;
21927;SDS011;11128;51.096;17.190;2022-08-19T17:01:51;19.25;;;13.27;;
21927;SDS011;11128;51.096;17.190;2022-08-19T17:06:53;20.73;;;13.98;;
21927;SDS011;11128;51.096;17.190;2022-08-19T17:11:55;19.73;;;14.30;;
21927;SDS011;11128;51.096;17.190;2022-08-19T17:16:57;17.58;;;14.13;;
21927;SDS011;11128;51.096;17.190;2022-08-19T17:21:59;26.42;;;18.45;;
21927;SDS011;11128;51.096;17.190;2022-08-19T17:27:00;26.30;;;17.02;;
21927;SDS011;11128;51.096;17.190;2022-08-19T17:32:02;24.92;;;16.65;;
21927;SDS011;11128;51.096;17.190;2022-08-19T17:37:04;19.35;;;14.32;;
21927;SDS011;11128;51.096;17.190;2022-08-19T17:42:06;18.92;;;14.32;;
21927;SDS011;11128;51.096;17.190;2022-08-19T17:47:08;18.10;;;14.68;;
21927;SDS011;11128;51.096;17.190;2022-08-19T17:52:10;21.13;;;15.00;;
21927;SDS011;11128;51.096;17.190;2022-08-19T17:57:12;19.33;;;15.30;;
21927;SDS011;11128;51.096;17.190;2022-08-19T18:02:14;17.17;;;14.55;;
21927;SDS011;11128;51.096;17.190;2022-08-19T18:07:16;20.05;;;15.30;;
21927;SDS011;11128;51.096;17.190;2022-08-19T18:12:22;20.17;;;15.35;;
21927;SDS011;11128;51.096;17.190;2022-08-19T18:17:26;23.67;;;17.48;;
21927;SDS011;11128;51.096;17.190;2022-08-19T18:22:36;18.35;;;15.02;;
21927;SDS011;11128;51.096;17.190;2022-08-19T18:27:39;21.23;;;16.63;;
21927;SDS011;11128;51.096;17.190;2022-08-19T18:32:43;25.90;;;16.55;;
21927;SDS011;11128;51.096;17.190;2022-08-19T18:37:46;21.95;;;15.75;;
21927;SDS011;11128;51.096;17.190;2022-08-19T18:42:51;26.13;;;16.77;;
21927;SDS011;11128;51.096;17.190;2022-08-19T18:48:11;27.50;;;16.30;;
21927;SDS011;11128;51.096;17.190;2022-08-19T18:53:33;24.83;;;16.15;;
21927;SDS011;11128;51.096;17.190;2022-08-19T18:58:41;23.58;;;17.42;;
21927;SDS011;11128;51.096;17.190;2022-08-19T19:03:45;24.38;;;17.02;;
21927;SDS011;11128;51.096;17.190;2022-08-19T19:08:49;24.40;;;17.35;;
21927;SDS011;11128;51.096;17.190;2022-08-19T19:13:52;23.13;;;16.58;;
21927;SDS011;11128;51.096;17.190;2022-08-19T19:18:55;22.63;;;15.85;;
21927;SDS011;11128;51.096;17.190;2022-08-19T19:23:58;20.52;;;14.93;;
21927;SDS011;11128;51.096;17.190;2022-08-19T19:29:00;19.65;;;12.63;;
21927;SDS011;11128;51.096;17.190;2022-08-19T19:34:02;19.52;;;10.30;;
21927;SDS011;11128;51.096;17.190;2022-08-19T19:39:05;17.25;;;9.02;;
21927;SDS011;11128;51.096;17.190;2022-08-19T19:44:08;14.13;;;7.85;;
21927;SDS011;11128;51.096;17.190;2022-08-19T19:49:11;13.90;;;7.53;;
21927;SDS011;11128;51.096;17.190;2022-08-19T19:54:14;10.88;;;7.10;;
21927;SDS011;11128;51.096;17.190;2022-08-19T19:59:16;13.98;;;7.90;;
21927;SDS011;11128;51.096;17.190;2022-08-19T20:04:18;15.23;;;7.85;;
21927;SDS011;11128;51.096;17.190;2022-08-19T20:09:20;15.73;;;7.43;;
21927;SDS011;11128;51.096;17.190;2022-08-19T20:14:23;16.27;;;7.82;;
21927;SDS011;11128;51.096;17.190;2022-08-19T20:19:29;15.30;;;7.47;;
21927;SDS011;11128;51.096;17.190;2022-08-19T20:24:38;13.05;;;7.78;;
21927;SDS011;11128;51.096;17.190;2022-08-19T20:29:42;12.13;;;7.68;;
21927;SDS011;11128;51.096;17.190;2022-08-19T20:34:43;13.75;;;7.88;;
21927;SDS011;11128;51.096;17.190;2022-08-19T20:39:49;13.98;;;8.25;;
21927;SDS011;11128;51.096;17.190;2022-08-19T20:44:50;14.38;;;7.88;;
21927;SDS011;11128;51.096;17.190;2022-08-19T20:49:52;12.52;;;8.27;;
21927;SDS011;11128;51.096;17.190;2022-08-19T20:54:54;16.60;;;8.63;;
21927;SDS011;11128;51.096;17.190;2022-08-19T20:59:56;11.93;;;9.02;;
21927;SDS011;11128;51.096;17.190;2022-08-19T21:04:58;19.55;;;9.32;;
21927;SDS011;11128;51.096;17.190;2022-08-19T21:10:00;12.27;;;8.07;;
21927;SDS011;11128;51.096;17.190;2022-08-19T21:15:03;14.95;;;8.35;;
21927;SDS011;11128;51.096;17.190;2022-08-19T21:20:04;17.25;;;8.57;;
21927;SDS011;11128;51.096;17.190;2022-08-19T21:25:08;16.65;;;9.13;;
21927;SDS011;11128;51.096;17.190;2022-08-19T21:30:11;15.25;;;9.57;;
21927;SDS011;11128;51.096;17.190;2022-08-19T21:35:13;12.63;;;8.13;;
21927;SDS011;11128;51.096;17.190;2022-08-19T21:40:15;13.85;;;8.45;;
21927;SDS011;11128;51.096;17.190;2022-08-19T21:45:17;16.98;;;8.65;;
21927;SDS011;11128;51.096;17.190;2022-08-19T21:50:19;14.80;;;8.32;;
21927;SDS011;11128;51.096;17.190;2022-08-19T21:55:21;14.30;;;9.07;;
21927;SDS011;11128;51.096;17.190;2022-08-19T22:00:22;15.98;;;9.07;;
21927;SDS011;11128;51.096;17.190;2022-08-19T22:05:24;12.63;;;9.38;;
21927;SDS011;11128;51.096;17.190;2022-08-19T22:10:27;17.15;;;8.63;;
21927;SDS011;11128;51.096;17.190;2022-08-19T22:15:33;17.48;;;9.63;;
21927;SDS011;11128;51.096;17.190;2022-08-19T22:20:35;13.90;;;8.68;;
21927;SDS011;11128;51.096;17.190;2022-08-19T22:25:42;11.85;;;8.65;;
21927;SDS011;11128;51.096;17.190;2022-08-19T22:30:46;20.08;;;9.20;;
21927;SDS011;11128;51.096;17.190;2022-08-19T22:35:47;15.40;;;9.32;;
21927;SDS011;11128;51.096;17.190;2022-08-19T22:40:51;17.10;;;9.25;;
21927;SDS011;11128;51.096;17.190;2022-08-19T22:45:54;15.40;;;8.93;;
21927;SDS011;11128;51.096;17.190;2022-08-19T22:50:56;14.52;;;8.80;;
21927;SDS011;11128;51.096;17.190;2022-08-19T22:56:17;14.18;;;8.82;;
21927;SDS011;11128;51.096;17.190;2022-08-19T23:01:20;13.65;;;9.20;;
21927;SDS011;11128;51.096;17.190;2022-08-19T23:06:23;16.27;;;9.80;;
21927;SDS011;11128;51.096;17.190;2022-08-19T23:11:25;16.15;;;9.75;;
21927;SDS011;11128;51.096;17.190;2022-08-19T23:16:26;14.65;;;9.55;;
21927;SDS011;11128;51.096;17.190;2022-08-19T23:21:28;15.90;;;10.55;;
21927;SDS011;11128;51.096;17.190;2022-08-19T23:26:30;14.52;;;10.10;;
21927;SDS011;11128;51.096;17.190;2022-08-19T23:31:32;18.52;;;10.05;;
21927;SDS011;11128;51.096;17.190;2022-08-19T23:36:35;14.43;;;10.05;;
21927;SDS011;11128;51.096;17.190;2022-08-19T23:41:36;15.80;;;9.57;;
21927;SDS011;11128;51.096;17.190;2022-08-19T23:46:38;15.57;;;9.70;;
21927;SDS011;11128;51.096;17.190;2022-08-19T23:51:41;12.80;;;10.00;;
21927;SDS011;11128;51.096;17.190;2022-08-19T23:56:42;13.07;;;9.65;;
